Terminal Aerodrome Forecast
Issued by NWS Jackson, KY

Home | Current Version | Previous Version | Text Only | Print | Product List | Glossary On
Versions: 1 2 3 4 5 6 7 8 9 10 11 12 13 14 15 16
953
FTUS43 KJKL 240523
TAFJKL
TAF
KJKL 240523Z 2406/2506 00000KT P6SM SCT040
     FM241200 17005KT P6SM FEW250 WS020/21035KT
     FM241400 19007KT P6SM FEW035 FEW250
     FM241700 19011G19KT P6SM FEW035 FEW090
     FM250500 20008KT 5SM -SHRA VCTS BKN050CB=

USA.gov is the U.S. government's official web portal to all federal, state and local government web resources and services.